Time;durP1;ratioP1;P1;durP2;ratioP2;P2;SDS_P1;SDS_P2;PMS_P1;PMS_P2;Temp;Humidity;BMP_temperature;BMP_pressure;BME280_temperature;BME280_humidity;BME280_pressure;Samples;Min_cycle;Max_cycle;Signal;HPM_P1;HPM_P2
2022/06/17 00:00:58;;;;;;;6.00;2.80;;;18.10;96.40;;;;;;5028365;28;20070;-66
2022/06/17 00:03:28;;;;;;;6.50;3.30;;;18.00;96.80;;;;;;5030394;28;20095;-65
2022/06/17 00:05:58;;;;;;;5.00;3.60;;;18.00;97.10;;;;;;5029346;28;20057;-65
2022/06/17 00:08:42;;;;;;;4.63;3.25;;;17.90;97.50;;;;;;5029238;28;20045;-65
2022/06/17 00:11:19;;;;;;;6.55;3.53;;;17.90;98.00;;;;;;5029778;28;20047;-65
2022/06/17 00:13:47;;;;;;;7.75;3.25;;;17.80;98.40;;;;;;5027249;28;20041;-65
2022/06/17 00:16:16;;;;;;;6.75;3.55;;;17.70;98.90;;;;;;5032093;28;20099;-66
2022/06/17 00:18:44;;;;;;;6.05;3.42;;;17.70;99.20;;;;;;5030502;28;20107;-66
2022/06/17 00:21:27;;;;;;;4.82;3.47;;;17.70;99.70;;;;;;5019418;28;20072;-66
2022/06/17 00:23:55;;;;;;;5.95;3.50;;;17.60;99.90;;;;;;5031414;28;20052;-66
2022/06/17 00:26:23;;;;;;;5.63;3.38;;;17.60;99.90;;;;;;5031188;28;20041;-66
2022/06/17 00:28:51;;;;;;;8.25;3.75;;;17.50;99.90;;;;;;5031756;28;20058;-66
2022/06/17 00:31:19;;;;;;;8.65;3.70;;;17.50;99.90;;;;;;5012875;28;20404;-66
2022/06/17 00:33:47;;;;;;;6.43;3.60;;;17.50;99.90;;;;;;5030627;28;20099;-66
2022/06/17 00:36:18;;;;;;;6.60;3.63;;;17.40;99.90;;;;;;5030764;28;20038;-65
2022/06/17 00:38:46;;;;;;;5.57;3.15;;;17.40;99.90;;;;;;5028275;28;20144;-66
2022/06/17 00:41:24;;;;;;;5.28;3.10;;;17.40;99.90;;;;;;5027691;28;20045;-65
2022/06/17 00:43:52;;;;;;;6.13;3.42;;;17.30;99.90;;;;;;5027174;28;20179;-66
2022/06/17 00:46:53;;;;;;;6.32;3.33;;;17.30;99.90;;;;;;5020969;28;20434;-66
2022/06/17 00:49:49;;;;;;;6.65;3.55;;;17.30;99.90;;;;;;5028230;28;20453;-65
2022/06/17 00:52:27;;;;;;;8.02;3.78;;;17.30;99.90;;;;;;5043292;28;20480;-64
2022/06/17 00:55:01;;;;;;;8.63;3.88;;;17.20;99.90;;;;;;5052560;28;20036;-65
2022/06/17 00:57:34;;;;;;;7.32;3.60;;;17.20;99.90;;;;;;5029543;28;20345;-66
2022/06/17 01:00:07;;;;;;;9.98;3.40;;;17.20;99.90;;;;;;5058006;28;20479;-66
2022/06/17 01:02:39;;;;;;;6.53;3.50;;;17.10;99.90;;;;;;5044643;28;20207;-66
2022/06/17 01:05:08;;;;;;;5.82;3.55;;;17.10;99.90;;;;;;5044892;28;20509;-65
2022/06/17 01:07:52;;;;;;;7.80;3.90;;;17.10;99.90;;;;;;5046666;28;20137;-66
2022/06/17 01:10:20;;;;;;;6.07;4.00;;;17.10;99.90;;;;;;5055336;28;20099;-66
2022/06/17 01:13:03;;;;;;;7.03;3.63;;;17.10;99.90;;;;;;5046563;28;20119;-66
2022/06/17 01:15:36;;;;;;;5.70;3.53;;;17.00;99.90;;;;;;5029235;28;20083;-66
2022/06/17 01:18:05;;;;;;;6.25;3.63;;;17.00;99.90;;;;;;5050148;28;20584;-65
2022/06/17 01:20:35;;;;;;;5.13;3.40;;;17.00;99.90;;;;;;5040465;28;20698;-65
2022/06/17 01:23:10;;;;;;;5.13;3.80;;;16.90;99.90;;;;;;5057128;28;20055;-65
2022/06/17 01:25:42;;;;;;;6.22;3.83;;;16.90;99.90;;;;;;5024773;28;20079;-66
2022/06/17 01:28:13;;;;;;;6.93;3.90;;;16.90;99.90;;;;;;5034047;28;20040;-66
2022/06/17 01:30:58;;;;;;;5.53;3.85;;;16.80;99.90;;;;;;5026062;28;20041;-66
2022/06/17 01:33:41;;;;;;;4.88;3.38;;;16.80;99.90;;;;;;5026405;28;20037;-66
2022/06/17 01:36:19;;;;;;;8.30;4.00;;;16.80;99.90;;;;;;5031573;28;20060;-66
2022/06/17 01:38:52;;;;;;;7.03;3.40;;;16.80;99.90;;;;;;5011021;28;20052;-65
2022/06/17 01:41:29;;;;;;;5.07;3.63;;;16.70;99.90;;;;;;5008991;28;20420;-66
2022/06/17 01:44:01;;;;;;;6.78;3.90;;;16.70;99.90;;;;;;5027599;28;20065;-65
2022/06/17 01:46:37;;;;;;;6.20;3.80;;;16.60;99.90;;;;;;5019383;28;20053;-65
2022/06/17 01:49:10;;;;;;;7.30;4.00;;;16.60;99.90;;;;;;5023060;28;20125;-66
2022/06/17 01:51:42;;;;;;;6.68;4.07;;;16.50;99.90;;;;;;5019675;28;20044;-65
2022/06/17 01:54:17;;;;;;;6.85;3.75;;;16.50;99.90;;;;;;5017865;28;20121;-66
2022/06/17 01:56:48;;;;;;;8.45;4.07;;;16.50;99.90;;;;;;5026849;28;20120;-66
2022/06/17 01:59:24;;;;;;;9.70;4.00;;;16.50;99.90;;;;;;5020646;28;20444;-65
2022/06/17 02:01:55;;;;;;;4.97;3.50;;;16.40;99.90;;;;;;5014375;28;20049;-65
2022/06/17 02:04:27;;;;;;;5.88;4.07;;;16.40;99.90;;;;;;5026292;28;20041;-66
2022/06/17 02:07:28;;;;;;;6.03;4.03;;;16.40;99.90;;;;;;5025317;28;20376;-66
2022/06/17 02:09:56;;;;;;;7.20;4.38;;;16.40;99.90;;;;;;5018015;28;20069;-65
2022/06/17 02:12:25;;;;;;;8.43;4.18;;;16.30;99.90;;;;;;5027023;28;20118;-65
2022/06/17 02:14:59;;;;;;;7.82;4.78;;;16.30;99.90;;;;;;5019284;28;20102;-66
2022/06/17 02:18:07;;;;;;;7.50;4.40;;;16.30;99.90;;;;;;5017225;28;20607;-65
2022/06/17 02:20:48;;;;;;;5.28;3.67;;;16.20;99.90;;;;;;5025457;28;20045;-65
2022/06/17 02:23:16;;;;;;;6.72;3.88;;;16.20;99.90;;;;;;5018621;28;20045;-66
2022/06/17 02:25:47;;;;;;;7.55;4.00;;;16.20;99.90;;;;;;5021721;28;20136;-65
2022/06/17 02:28:16;;;;;;;6.80;3.95;;;16.10;99.90;;;;;;5026764;28;20045;-65
2022/06/17 02:30:46;;;;;;;7.05;4.63;;;16.10;99.90;;;;;;5025391;28;20042;-65
2022/06/17 02:33:15;;;;;;;7.18;4.30;;;16.10;99.90;;;;;;5023729;28;20033;-65
2022/06/17 02:35:56;;;;;;;7.22;4.47;;;16.00;99.90;;;;;;5029283;28;20037;-65
2022/06/17 02:38:27;;;;;;;11.27;4.50;;;16.00;99.90;;;;;;5024474;28;20120;-65
2022/06/17 02:41:00;;;;;;;8.02;4.40;;;16.00;99.90;;;;;;5005799;28;20542;-65
2022/06/17 02:43:31;;;;;;;5.95;4.05;;;15.90;99.90;;;;;;5025275;28;20211;-65
2022/06/17 02:46:07;;;;;;;6.38;4.07;;;15.90;99.90;;;;;;5022253;28;20538;-65
2022/06/17 02:48:46;;;;;;;8.52;4.25;;;15.90;99.90;;;;;;5028251;28;20041;-65
2022/06/17 02:51:14;;;;;;;8.48;4.50;;;15.80;99.90;;;;;;5028038;28;20033;-65
2022/06/17 02:53:42;;;;;;;8.77;4.70;;;15.80;99.90;;;;;;5029329;28;20120;-65
2022/06/17 02:56:24;;;;;;;5.30;4.07;;;15.80;99.90;;;;;;5030111;28;20107;-65
2022/06/17 02:59:11;;;;;;;9.68;4.35;;;15.80;99.90;;;;;;5028920;28;20080;-65
2022/06/17 03:01:44;;;;;;;9.27;4.75;;;15.70;99.90;;;;;;5027815;28;20476;-65
2022/06/17 03:04:46;;;;;;;6.25;4.15;;;15.70;99.90;;;;;;5030367;28;20420;-65
2022/06/17 03:07:16;;;;;;;6.38;4.07;;;15.70;99.90;;;;;;5030132;28;20047;-66
2022/06/17 03:09:47;;;;;;;11.20;4.28;;;15.70;99.90;;;;;;5030225;28;20560;-66
2022/06/17 03:12:23;;;;;;;6.03;4.25;;;15.70;99.90;;;;;;5013998;28;20041;-65
2022/06/17 03:15:13;;;;;;;7.95;4.47;;;15.70;99.90;;;;;;5029671;28;20492;-66
2022/06/17 03:17:45;;;;;;;9.35;4.55;;;15.60;99.90;;;;;;5010930;28;20050;-66
2022/06/17 03:20:26;;;;;;;7.72;4.78;;;15.50;99.90;;;;;;5027516;28;20128;-64
2022/06/17 03:22:59;;;;;;;8.43;4.68;;;15.50;99.90;;;;;;5021871;28;20053;-66
2022/06/17 03:25:46;;;;;;;8.00;4.53;;;15.50;99.90;;;;;;5027147;28;20057;-65
2022/06/17 03:28:19;;;;;;;7.82;5.10;;;15.50;99.90;;;;;;5033023;28;20063;-65
2022/06/17 03:30:52;;;;;;;7.07;4.70;;;15.50;99.90;;;;;;5027543;28;20045;-66
2022/06/17 03:33:26;;;;;;;8.73;4.50;;;15.50;99.90;;;;;;5029366;28;20460;-65
2022/06/17 03:35:59;;;;;;;7.78;4.25;;;15.50;99.90;;;;;;5030418;28;20408;-65
2022/06/17 03:38:30;;;;;;;6.65;4.55;;;15.50;99.90;;;;;;5031663;28;20041;-65
2022/06/17 03:41:27;;;;;;;8.02;4.82;;;15.40;99.90;;;;;;5028725;28;20075;-65
2022/06/17 03:44:02;;;;;;;8.20;4.85;;;15.50;99.90;;;;;;5026222;28;20060;-66
2022/06/17 03:46:36;;;;;;;10.02;4.93;;;15.40;99.90;;;;;;5021519;28;20061;-65
2022/06/17 03:49:14;;;;;;;7.47;4.40;;;15.50;99.90;;;;;;5020188;28;20046;-65
2022/06/17 03:51:43;;;;;;;7.20;4.93;;;15.50;99.90;;;;;;5024091;28;20044;-65
2022/06/17 03:54:14;;;;;;;9.75;4.60;;;15.60;99.90;;;;;;5026909;28;20372;-65
2022/06/17 03:56:49;;;;;;;10.68;4.65;;;15.60;99.90;;;;;;5027864;28;20460;-66
2022/06/17 03:59:29;;;;;;;9.23;4.57;;;15.60;99.90;;;;;;5028640;28;20038;-65
2022/06/17 04:02:07;;;;;;;7.75;4.57;;;15.70;99.90;;;;;;5031147;28;20056;-66
2022/06/17 04:04:40;;;;;;;6.40;4.30;;;15.80;99.90;;;;;;5030330;28;20041;-65
2022/06/17 04:07:11;;;;;;;9.35;4.60;;;15.80;99.90;;;;;;5029518;28;20052;-66
2022/06/17 04:09:43;;;;;;;9.80;4.85;;;15.90;99.90;;;;;;5029059;28;20057;-66
2022/06/17 04:12:12;;;;;;;7.28;4.90;;;15.90;99.90;;;;;;5009782;28;20096;-66
2022/06/17 04:15:44;;;;;;;8.63;5.18;;;16.00;99.90;;;;;;5024594;28;20710;-66
2022/06/17 04:18:12;;;;;;;8.50;5.15;;;16.00;99.90;;;;;;5020054;28;20045;-65
2022/06/17 04:20:54;;;;;;;7.05;4.40;;;16.00;99.90;;;;;;5037071;28;20516;-65
2022/06/17 04:23:35;;;;;;;9.10;4.72;;;16.00;99.90;;;;;;5038414;28;20061;-65
2022/06/17 04:26:11;;;;;;;6.55;4.18;;;16.10;99.90;;;;;;5029728;28;20057;-65
2022/06/17 04:28:46;;;;;;;7.30;4.45;;;16.10;99.90;;;;;;5013992;28;20053;-66
2022/06/17 04:31:20;;;;;;;8.05;4.72;;;16.10;99.90;;;;;;5011368;28;20116;-65
2022/06/17 04:34:13;;;;;;;11.93;4.47;;;16.10;99.90;;;;;;5027662;28;20502;-65
2022/06/17 04:36:49;;;;;;;6.72;4.60;;;16.30;99.90;;;;;;5024219;28;20417;-66
2022/06/17 04:39:38;;;;;;;8.27;4.80;;;16.40;99.90;;;;;;5017831;28;20053;-65
2022/06/17 04:42:18;;;;;;;12.13;5.32;;;16.50;99.90;;;;;;5030625;28;20081;-65
2022/06/17 04:44:48;;;;;;;6.22;4.68;;;16.60;99.90;;;;;;5029191;28;20053;-65
2022/06/17 04:47:20;;;;;;;7.18;4.63;;;16.60;99.90;;;;;;5026127;28;20050;-65
2022/06/17 04:49:59;;;;;;;8.73;4.50;;;16.60;99.90;;;;;;5019382;28;20073;-66
2022/06/17 04:52:36;;;;;;;7.50;4.40;;;16.80;99.90;;;;;;5023320;28;20076;-65
2022/06/17 04:55:23;;;;;;;15.73;4.88;;;16.90;99.90;;;;;;5016011;28;20133;-66
2022/06/17 04:58:16;;;;;;;6.50;4.07;;;17.00;99.90;;;;;;5021433;28;20117;-66
2022/06/17 05:00:51;;;;;;;7.22;4.50;;;17.00;99.90;;;;;;5024222;28;20096;-66
2022/06/17 05:03:28;;;;;;;8.45;4.70;;;17.10;99.90;;;;;;5025725;28;20057;-66
2022/06/17 05:06:16;;;;;;;10.00;4.88;;;17.00;99.90;;;;;;5022513;28;20078;-66
2022/06/17 05:08:50;;;;;;;8.40;4.68;;;17.00;99.90;;;;;;5035095;28;20053;-66
2022/06/17 05:11:25;;;;;;;8.48;4.90;;;17.10;99.90;;;;;;5033535;28;20065;-66
2022/06/17 05:13:58;;;;;;;11.52;4.93;;;17.10;99.90;;;;;;5025039;28;20041;-66
2022/06/17 05:16:26;;;;;;;10.55;4.50;;;17.20;99.90;;;;;;5023567;28;20124;-66
2022/06/17 05:18:54;;;;;;;11.30;5.10;;;17.30;99.90;;;;;;5018261;28;20516;-66
2022/06/17 05:21:24;;;;;;;9.25;4.25;;;17.30;99.90;;;;;;5024219;28;20056;-66
2022/06/17 05:24:17;;;;;;;6.53;4.57;;;17.40;99.90;;;;;;5029330;28;20065;-66
2022/06/17 05:26:45;;;;;;;14.43;5.18;;;17.40;99.90;;;;;;5027439;28;20056;-65
2022/06/17 05:29:13;;;;;;;7.75;4.25;;;17.40;99.90;;;;;;5024956;28;20034;-65
2022/06/17 05:31:50;;;;;;;14.82;4.78;;;17.50;99.90;;;;;;5036045;28;20518;-65
2022/06/17 05:34:20;;;;;;;10.50;4.88;;;17.40;99.90;;;;;;5011163;28;20450;-66
2022/06/17 05:36:47;;;;;;;14.02;4.82;;;17.60;99.90;;;;;;5010879;28;20477;-66
2022/06/17 05:39:16;;;;;;;15.63;5.05;;;17.70;99.90;;;;;;5008328;28;20501;-67
2022/06/17 05:41:43;;;;;;;10.65;4.75;;;17.90;99.90;;;;;;5009602;28;20049;-65
2022/06/17 05:44:10;;;;;;;12.20;5.30;;;17.90;99.90;;;;;;5013665;28;20047;-66
2022/06/17 05:46:43;;;;;;;;;;;18.00;99.90;;;;;;5028680;28;20045;-66
2022/06/17 05:49:30;;;;;;;7.82;4.25;;;18.00;99.90;;;;;;5033675;28;19988;-66
2022/06/17 05:52:12;;;;;;;9.63;5.13;;;18.10;99.90;;;;;;5026080;28;20041;-66
2022/06/17 05:55:09;;;;;;;8.52;4.50;;;18.00;99.90;;;;;;5023418;28;20477;-66
2022/06/17 05:57:36;;;;;;;9.20;4.70;;;18.10;99.90;;;;;;5033231;28;20591;-65
2022/06/17 06:00:04;;;;;;;11.00;4.45;;;18.10;99.90;;;;;;5010115;28;20049;-67
2022/06/17 06:02:45;;;;;;;10.65;4.45;;;18.20;99.90;;;;;;5028235;28;20050;-67
2022/06/17 06:05:26;;;;;;;5.75;4.03;;;18.40;99.90;;;;;;5031438;28;20041;-67
2022/06/17 06:07:55;;;;;;;8.50;3.65;;;18.50;99.90;;;;;;5032079;28;20071;-67
2022/06/17 06:10:23;;;;;;;8.30;4.28;;;18.70;99.90;;;;;;5030600;28;20092;-68
2022/06/17 06:12:54;;;;;;;9.57;4.38;;;18.80;99.90;;;;;;5038046;28;20038;-68
2022/06/17 06:15:46;;;;;;;9.63;3.92;;;18.90;99.90;;;;;;5033308;28;20048;-66
2022/06/17 06:18:27;;;;;;;11.57;4.43;;;18.80;99.90;;;;;;5025087;28;20132;-66
2022/06/17 06:20:56;;;;;;;8.27;3.97;;;18.90;99.90;;;;;;5026639;28;20566;-66
2022/06/17 06:23:26;;;;;;;7.75;4.10;;;19.00;99.90;;;;;;5025112;28;20132;-67
2022/06/17 06:25:54;;;;;;;5.72;3.90;;;19.10;99.90;;;;;;5032317;28;20072;-67
2022/06/17 06:28:25;;;;;;;10.10;3.83;;;19.10;99.90;;;;;;5032168;28;20396;-67
2022/06/17 06:31:32;;;;;;;8.23;4.00;;;19.30;99.90;;;;;;5029658;28;20103;-67
2022/06/17 06:34:05;;;;;;;10.75;3.90;;;19.40;99.90;;;;;;5031578;28;20501;-67
2022/06/17 06:36:42;;;;;;;8.50;3.80;;;19.60;99.90;;;;;;5039278;28;20056;-67
2022/06/17 06:39:09;;;;;;;6.90;3.25;;;19.70;99.90;;;;;;5031585;28;20393;-67
2022/06/17 06:41:37;;;;;;;6.45;3.22;;;19.80;99.90;;;;;;5031247;28;20492;-67
2022/06/17 06:44:04;;;;;;;7.80;3.03;;;20.00;99.90;;;;;;5030510;28;20133;-67
2022/06/17 06:47:04;;;;;;;7.47;3.53;;;20.10;99.90;;;;;;5029650;28;20130;-67
2022/06/17 06:50:11;;;;;;;7.15;3.17;;;20.20;99.90;;;;;;5030023;28;20523;-66
2022/06/17 06:52:38;;;;;;;6.45;3.13;;;20.40;99.90;;;;;;5029479;28;20049;-66
2022/06/17 06:55:11;;;;;;;6.00;3.30;;;20.50;99.90;;;;;;5026835;28;20076;-66
2022/06/17 06:57:45;;;;;;;7.53;3.25;;;20.50;99.90;;;;;;5031112;28;20119;-65
2022/06/17 07:00:21;;;;;;;8.93;3.47;;;20.50;99.90;;;;;;5011605;28;20045;-66
2022/06/17 07:02:49;;;;;;;5.20;3.17;;;20.60;99.90;;;;;;5025234;28;20092;-67
2022/06/17 07:05:17;;;;;;;7.75;3.75;;;20.70;99.90;;;;;;5027106;28;20053;-68
2022/06/17 07:07:45;;;;;;;5.80;3.50;;;20.60;99.90;;;;;;5031942;28;20365;-67
2022/06/17 07:10:16;;;;;;;7.40;3.50;;;20.70;99.90;;;;;;5031584;28;20057;-67
2022/06/17 07:12:44;;;;;;;7.10;3.53;;;20.80;99.90;;;;;;5018222;28;20042;-67
2022/06/17 07:15:14;;;;;;;8.55;3.13;;;20.80;99.90;;;;;;5027178;28;20408;-67
2022/06/17 07:18:02;;;;;;;4.95;3.00;;;20.80;99.90;;;;;;5029658;28;20595;-67
2022/06/17 07:20:42;;;;;;;6.95;3.47;;;20.90;99.90;;;;;;5023398;28;20096;-66
2022/06/17 07:23:13;;;;;;;10.48;3.03;;;21.00;99.90;;;;;;5031823;28;20042;-66
2022/06/17 07:25:40;;;;;;;6.22;3.38;;;21.10;99.90;;;;;;5029832;28;20041;-67
2022/06/17 07:28:11;;;;;;;9.00;3.53;;;21.10;99.90;;;;;;5031067;28;20041;-67
2022/06/17 07:30:39;;;;;;;5.40;2.90;;;21.10;99.90;;;;;;5028237;28;20050;-67
2022/06/17 07:33:06;;;;;;;7.05;2.90;;;21.00;99.90;;;;;;5027567;28;20520;-67
2022/06/17 07:35:33;;;;;;;8.68;2.95;;;21.30;99.90;;;;;;5027595;28;20040;-67
2022/06/17 07:40:48;;;;;;;8.00;3.25;;;21.60;99.90;;;;;;5017985;28;20057;-66
2022/06/17 07:43:17;;;;;;;6.40;3.10;;;21.70;99.90;;;;;;5028413;28;20045;-67
2022/06/17 07:45:45;;;;;;;4.93;3.17;;;21.80;99.90;;;;;;5019411;28;20369;-66
2022/06/17 07:48:14;;;;;;;10.57;3.55;;;22.00;99.90;;;;;;5023825;28;20460;-67
2022/06/17 07:50:43;;;;;;;17.15;8.50;;;22.00;99.90;;;;;;5014042;28;20472;-67
2022/06/17 07:53:13;;;;;;;10.20;5.25;;;22.10;99.90;;;;;;5010988;28;20052;-66
2022/06/17 07:55:42;;;;;;;8.88;4.32;;;22.10;99.90;;;;;;5027836;28;20042;-67
2022/06/17 07:58:12;;;;;;;10.80;7.18;;;22.20;99.90;;;;;;5029772;28;20047;-67
2022/06/17 08:00:42;;;;;;;8.77;3.53;;;22.40;99.90;;;;;;5018786;28;20045;-67
2022/06/17 08:03:13;;;;;;;6.32;3.55;;;22.40;99.90;;;;;;5020509;28;20041;-67
2022/06/17 08:05:46;;;;;;;6.95;2.88;;;22.60;99.90;;;;;;5021396;28;20045;-67
2022/06/17 08:08:21;;;;;;;6.80;3.70;;;22.60;99.90;;;;;;5026885;28;20417;-67
2022/06/17 08:10:52;;;;;;;7.78;3.80;;;22.30;99.90;;;;;;5020191;28;20041;-67
2022/06/17 08:13:20;;;;;;;6.57;3.20;;;21.90;99.90;;;;;;5029322;28;20041;-67
2022/06/17 08:15:51;;;;;;;6.80;3.70;;;21.80;99.90;;;;;;5027934;28;20452;-67
2022/06/17 08:18:19;;;;;;;5.72;3.00;;;22.00;99.90;;;;;;5020426;28;20033;-67
2022/06/17 08:20:47;;;;;;;8.63;3.40;;;22.20;99.90;;;;;;5025380;28;20104;-67
2022/06/17 08:23:15;;;;;;;9.38;3.95;;;22.30;99.90;;;;;;5028018;28;20531;-67
2022/06/17 08:25:43;;;;;;;8.07;3.30;;;22.30;99.90;;;;;;5027516;28;20045;-67
2022/06/17 08:28:12;;;;;;;6.53;3.30;;;22.40;99.90;;;;;;5029517;28;20120;-67
2022/06/17 08:30:48;;;;;;;6.55;3.33;;;22.50;99.90;;;;;;5028613;28;20052;-66
2022/06/17 08:33:15;;;;;;;7.13;3.10;;;22.70;99.90;;;;;;5028736;28;20060;-67
2022/06/17 08:36:10;;;;;;;6.60;2.92;;;22.80;99.90;;;;;;5030860;28;20414;-68
2022/06/17 08:38:42;;;;;;;8.52;2.90;;;22.90;99.90;;;;;;5027795;28;20049;-68
2022/06/17 08:41:27;;;;;;;7.10;2.83;;;22.90;99.90;;;;;;5018596;28;20497;-65
2022/06/17 08:44:10;;;;;;;6.60;2.58;;;23.10;99.90;;;;;;5029286;28;20049;-67
2022/06/17 08:47:08;;;;;;;8.45;2.47;;;23.10;99.90;;;;;;5029355;28;20073;-67
2022/06/17 08:49:54;;;;;;;5.60;2.58;;;23.40;99.90;;;;;;5009927;28;20139;-68
2022/06/17 08:53:12;;;;;;;5.10;2.75;;;23.20;99.90;;;;;;5017921;28;20412;-67
2022/06/17 08:55:51;;;;;;;4.72;2.35;;;23.10;99.90;;;;;;5023458;28;20104;-67
2022/06/17 08:58:48;;;;;;;6.22;3.13;;;23.00;99.90;;;;;;5030961;28;20033;-66
2022/06/17 09:01:29;;;;;;;5.95;3.05;;;23.00;99.90;;;;;;5015922;28;20111;-66
2022/06/17 09:04:28;;;;;;;4.75;2.17;;;23.10;99.90;;;;;;5026983;28;20041;-67
2022/06/17 09:07:10;;;;;;;4.22;2.40;;;23.00;99.90;;;;;;5029064;28;20116;-68
2022/06/17 09:09:57;;;;;;;6.00;2.30;;;22.90;99.90;;;;;;5027236;28;20099;-67
2022/06/17 09:12:44;;;;;;;5.30;2.15;;;22.90;99.90;;;;;;5028690;28;20587;-66
2022/06/17 09:15:15;;;;;;;4.93;2.30;;;22.90;99.90;;;;;;5025011;28;20543;-65
2022/06/17 09:17:50;;;;;;;3.90;2.28;;;23.10;99.90;;;;;;5028555;28;20052;-65
2022/06/17 09:20:25;;;;;;;5.63;2.80;;;23.20;99.90;;;;;;5029397;28;20037;-66
2022/06/17 09:22:57;;;;;;;6.10;2.78;;;23.20;99.90;;;;;;5018291;28;20519;-66
2022/06/17 09:25:36;;;;;;;6.75;2.33;;;23.30;99.90;;;;;;5028826;28;20049;-65
2022/06/17 09:28:06;;;;;;;5.40;2.47;;;23.40;99.90;;;;;;5024724;28;20504;-65
2022/06/17 09:30:42;;;;;;;6.43;2.38;;;23.40;99.90;;;;;;5027711;28;20049;-65
2022/06/17 09:33:22;;;;;;;11.10;4.30;;;23.50;99.90;;;;;;5027407;28;20076;-65
2022/06/17 09:36:01;;;;;;;4.70;2.40;;;23.70;99.90;;;;;;5034080;28;20068;-65
2022/06/17 09:38:44;;;;;;;4.88;2.22;;;23.60;99.80;;;;;;5026943;28;20382;-65
2022/06/17 09:41:35;;;;;;;5.43;2.50;;;23.70;99.80;;;;;;5029185;28;20398;-65
2022/06/17 09:44:38;;;;;;;4.55;2.33;;;24.00;99.40;;;;;;5025875;28;20056;-65
2022/06/17 09:47:44;;;;;;;4.57;2.30;;;24.40;99.30;;;;;;5010374;28;20547;-65
2022/06/17 09:50:39;;;;;;;6.75;2.35;;;24.70;98.30;;;;;;5032294;28;20057;-65
2022/06/17 09:53:22;;;;;;;5.28;2.30;;;25.00;96.60;;;;;;5009156;28;20046;-66
2022/06/17 09:55:55;;;;;;;5.88;2.42;;;24.90;96.30;;;;;;5019135;28;20052;-65
2022/06/17 09:58:40;;;;;;;5.60;2.30;;;25.00;96.20;;;;;;5030836;28;20044;-66
2022/06/17 10:01:08;;;;;;;5.13;2.38;;;25.20;95.80;;;;;;5034387;28;20595;-65
2022/06/17 10:03:37;;;;;;;5.18;2.10;;;25.20;95.50;;;;;;5029102;28;20085;-66
2022/06/17 10:06:38;;;;;;;4.40;2.20;;;25.40;94.80;;;;;;5015846;28;20049;-64
2022/06/17 10:09:24;;;;;;;6.60;2.20;;;25.60;94.90;;;;;;5011080;28;20503;-65
2022/06/17 10:12:21;;;;;;;4.75;2.47;;;25.50;94.10;;;;;;5026412;28;20473;-65
2022/06/17 10:15:21;;;;;;;5.53;2.53;;;25.30;94.30;;;;;;5022868;28;20045;-65
2022/06/17 10:20:59;;;;;;;7.15;3.30;;;25.30;93.80;;;;;;5012670;28;20168;-65
2022/06/17 10:23:49;;;;;;;6.47;2.67;;;25.40;93.30;;;;;;5016832;28;20233;-65
2022/06/17 10:26:36;;;;;;;3.85;1.88;;;25.60;93.20;;;;;;5026181;28;20452;-65
2022/06/17 10:29:27;;;;;;;4.60;2.13;;;25.60;92.40;;;;;;5020378;28;20148;-64
2022/06/17 10:31:55;;;;;;;3.90;1.80;;;25.50;92.50;;;;;;5013292;28;20337;-65
2022/06/17 10:34:27;;;;;;;3.97;2.15;;;25.70;91.70;;;;;;5027108;28;20088;-66
2022/06/17 10:37:00;;;;;;;3.70;1.75;;;25.70;91.30;;;;;;5033757;28;20092;-64
2022/06/17 10:39:31;;;;;;;4.13;2.13;;;25.60;91.40;;;;;;5028722;28;20088;-65
2022/06/17 10:41:59;;;;;;;4.57;2.20;;;26.00;91.40;;;;;;5026210;28;20049;-65
2022/06/17 10:44:28;;;;;;;3.60;1.80;;;26.40;91.10;;;;;;5027519;28;20551;-65
2022/06/17 10:47:02;;;;;;;6.10;2.85;;;26.70;90.10;;;;;;5023957;28;20080;-65
2022/06/17 10:49:34;;;;;;;7.05;2.03;;;26.80;90.00;;;;;;5027297;28;20046;-66
2022/06/17 10:52:10;;;;;;;5.57;2.08;;;27.00;88.30;;;;;;5026456;28;20497;-65
2022/06/17 10:54:38;;;;;;;5.68;1.90;;;26.60;87.50;;;;;;5025238;28;20045;-66
2022/06/17 10:57:12;;;;;;;4.15;1.75;;;26.30;87.50;;;;;;5027339;28;20069;-65
2022/06/17 10:59:43;;;;;;;5.72;1.98;;;26.60;86.30;;;;;;5027198;28;20408;-65
2022/06/17 11:02:31;;;;;;;4.88;2.28;;;26.90;86.10;;;;;;5018164;28;20045;-65
2022/06/17 11:05:03;;;;;;;5.50;1.42;;;26.70;84.00;;;;;;5025965;28;20053;-65
2022/06/17 11:08:00;;;;;;;3.55;1.77;;;26.50;84.40;;;;;;5026261;28;20044;-64
2022/06/17 11:10:30;;;;;;;4.93;1.80;;;26.60;83.90;;;;;;5025596;28;20053;-64
2022/06/17 11:13:12;;;;;;;5.35;2.00;;;26.80;83.00;;;;;;5029440;28;20099;-65
2022/06/17 11:15:50;;;;;;;2.63;1.52;;;27.10;82.40;;;;;;5031235;28;20132;-66
2022/06/17 11:18:29;;;;;;;4.35;1.83;;;27.40;82.10;;;;;;5031810;28;20048;-65
2022/06/17 11:21:10;;;;;;;3.15;1.63;;;27.80;81.00;;;;;;5026452;28;20060;-65
2022/06/17 11:23:47;;;;;;;4.43;1.70;;;28.40;79.20;;;;;;5028171;28;20048;-65
2022/06/17 11:26:26;;;;;;;8.95;3.35;;;28.50;77.10;;;;;;5027241;28;20143;-65
2022/06/17 11:28:58;;;;;;;6.63;1.90;;;28.70;77.20;;;;;;5029205;28;20056;-65
2022/06/17 11:31:25;;;;;;;3.38;1.65;;;28.50;76.60;;;;;;5029849;28;20065;-65
2022/06/17 11:33:53;;;;;;;5.03;2.10;;;28.80;76.50;;;;;;5031851;28;20029;-65
2022/06/17 11:36:22;;;;;;;3.13;1.55;;;29.70;75.90;;;;;;5020013;28;20057;-65
2022/06/17 11:38:50;;;;;;;4.28;1.90;;;30.50;73.40;;;;;;5031216;28;20250;-65
2022/06/17 11:41:22;;;;;;;3.55;1.70;;;30.80;71.70;;;;;;5021539;28;20525;-65
2022/06/17 11:43:50;;;;;;;4.72;1.60;;;30.80;71.50;;;;;;5020788;28;20061;-65
2022/06/17 11:46:24;;;;;;;5.68;1.70;;;30.70;71.10;;;;;;5030560;28;20492;-64
2022/06/17 11:48:58;;;;;;;6.38;1.85;;;29.90;72.70;;;;;;5025965;28;20046;-65
2022/06/17 11:51:32;;;;;;;3.75;1.77;;;29.60;72.30;;;;;;5028772;28;20100;-65
2022/06/17 11:54:08;;;;;;;5.45;1.95;;;29.80;72.80;;;;;;5025358;28;20042;-65
2022/06/17 11:56:42;;;;;;;6.85;2.22;;;30.50;70.90;;;;;;5024662;28;20057;-65
2022/06/17 11:59:12;;;;;;;5.45;2.17;;;30.90;70.40;;;;;;5017908;28;20484;-64
2022/06/17 12:01:46;;;;;;;3.53;1.88;;;30.30;70.30;;;;;;5028748;28;20598;-64
2022/06/17 12:04:39;;;;;;;3.45;1.65;;;30.50;70.40;;;;;;5030546;28;20057;-64
2022/06/17 12:07:35;;;;;;;4.25;1.80;;;30.90;68.50;;;;;;5030471;28;20049;-65
2022/06/17 12:10:20;;;;;;;4.22;1.48;;;30.50;68.30;;;;;;5023967;28;20053;-65
2022/06/17 12:12:51;;;;;;;3.28;1.52;;;30.40;68.10;;;;;;5028636;28;20044;-64
2022/06/17 12:15:37;;;;;;;;;;;30.70;68.10;;;;;;5023844;28;20049;-64
2022/06/17 12:18:06;;;;;;;3.03;1.50;;;30.80;68.10;;;;;;5029267;28;19921;-64
2022/06/17 12:21:05;;;;;;;4.85;1.40;;;31.60;65.90;;;;;;5015413;28;20049;-64
2022/06/17 12:23:43;;;;;;;4.30;2.20;;;31.20;65.00;;;;;;5020494;28;20058;-64
2022/06/17 12:26:34;;;;;;;2.42;1.50;;;31.40;66.00;;;;;;5029034;28;20886;-64
2022/06/17 12:29:14;;;;;;;;;;;31.90;65.10;;;;;;5023951;28;20061;-65
2022/06/17 12:32:04;;;;;;;4.82;1.17;;;31.30;64.20;;;;;;5027144;28;19921;-63
2022/06/17 12:34:56;;;;;;;4.40;1.45;;;31.70;63.50;;;;;;5028822;28;20049;-64
2022/06/17 12:37:57;;;;;;;5.40;1.60;;;32.60;62.60;;;;;;5036910;28;20045;-64
2022/06/17 12:40:45;;;;;;;3.15;1.25;;;33.70;61.20;;;;;;5016465;28;20049;-64
2022/06/17 12:43:46;;;;;;;3.30;1.42;;;34.70;60.00;;;;;;5027247;28;20060;-65
2022/06/17 12:46:28;;;;;;;2.42;1.35;;;35.20;58.70;;;;;;5028376;28;20476;-64
2022/06/17 12:55:17;;;;;;;3.75;1.40;;;33.10;60.10;;;;;;5025095;28;20499;-64
2022/06/17 12:57:56;;;;;;;3.30;1.50;;;33.30;59.40;;;;;;5019397;28;20052;-65
2022/06/17 13:00:29;;;;;;;3.20;1.35;;;33.00;59.20;;;;;;5026987;28;20077;-65
2022/06/17 13:03:38;;;;;;;3.75;1.48;;;32.60;59.00;;;;;;5017785;28;20056;-64
2022/06/17 13:06:35;;;;;;;3.05;1.45;;;32.30;58.10;;;;;;5032223;28;20202;-64
2022/06/17 13:09:18;;;;;;;4.60;1.35;;;32.80;58.50;;;;;;5018524;28;20513;-65
2022/06/17 13:11:51;;;;;;;4.13;1.50;;;33.90;59.10;;;;;;5018473;28;20057;-64
2022/06/17 13:14:31;;;;;;;5.05;1.45;;;34.10;58.30;;;;;;5028143;28;20041;-64
2022/06/17 13:17:08;;;;;;;3.25;1.38;;;35.10;57.10;;;;;;5028154;28;20060;-64
2022/06/17 13:19:45;;;;;;;5.90;1.50;;;35.90;55.60;;;;;;5028874;28;20075;-64
2022/06/17 13:22:33;;;;;;;4.55;1.40;;;35.90;55.00;;;;;;5028493;28;20405;-65
2022/06/17 13:25:26;;;;;;;7.97;1.48;;;36.30;54.20;;;;;;5015983;28;20568;-64
2022/06/17 13:28:13;;;;;;;3.20;1.35;;;36.40;53.70;;;;;;5026079;28;20067;-65
2022/06/17 13:30:45;;;;;;;2.45;1.25;;;36.20;53.30;;;;;;5028462;28;20055;-64
2022/06/17 13:33:20;;;;;;;6.10;1.50;;;36.60;52.80;;;;;;5025711;28;20037;-66
2022/06/17 13:36:16;;;;;;;4.30;1.40;;;35.80;52.80;;;;;;5031954;28;20113;-65
2022/06/17 13:38:49;;;;;;;3.35;1.20;;;34.80;53.30;;;;;;5015778;28;20056;-65
2022/06/17 13:41:23;;;;;;;2.53;1.15;;;35.10;52.50;;;;;;5026292;28;20049;-64
2022/06/17 13:44:20;;;;;;;5.00;1.70;;;34.80;52.30;;;;;;5017559;28;20049;-65
2022/06/17 13:46:57;;;;;;;;;;;34.80;53.30;;;;;;5024819;28;20417;-66
2022/06/17 13:49:59;;;;;;;5.18;1.10;;;35.10;52.50;;;;;;5025567;28;19928;-65
2022/06/17 13:52:47;;;;;;;5.68;1.23;;;35.00;52.60;;;;;;5025548;28;20140;-65